createdAt,value
2023-04-03T00:01:02.187Z,101185.50
2023-04-03T00:02:03.949Z,101182.78
2023-04-03T00:03:06.906Z,101185.50
2023-04-03T00:04:09.032Z,101180.25
2023-04-03T00:05:11.757Z,101181.94
2023-04-03T00:06:14.138Z,101179.38
2023-04-03T00:07:16.839Z,101181.09
2023-04-03T00:08:18.578Z,101180.25
2023-04-03T00:09:21.452Z,101181.25
2023-04-03T00:10:23.387Z,101183.09
2023-04-03T00:11:27.458Z,101185.81
2023-04-03T00:12:30.986Z,101188.53
2023-04-03T00:13:34.477Z,101184.97
2023-04-03T00:14:36.200Z,101189.69
2023-04-03T00:15:39.717Z,101178.94
2023-04-03T00:16:41.493Z,101184.41
2023-04-03T00:17:44.249Z,101179.94
2023-04-03T00:18:45.941Z,101186.25
2023-04-03T00:19:48.554Z,101188.09
2023-04-03T00:20:50.499Z,101181.81
2023-04-03T00:21:54.511Z,101182.66
2023-04-03T00:22:56.531Z,101189.09
2023-04-03T00:23:59.269Z,101187.41
2023-04-03T00:25:01.103Z,101182.97
2023-04-03T00:26:05.239Z,101186.69
2023-04-03T00:27:08.339Z,101193.00
2023-04-03T00:28:11.324Z,101187.69
2023-04-03T00:29:13.170Z,101187.69
2023-04-03T00:30:18.376Z,101184.09
2023-04-03T00:31:20.163Z,101179.66
2023-04-03T00:32:23.103Z,101188.84
2023-04-03T00:33:25.692Z,101180.69
2023-04-03T00:34:28.555Z,101179.97
2023-04-03T00:35:30.675Z,101182.69
2023-04-03T00:36:33.567Z,101178.41
2023-04-03T00:37:35.438Z,101182.97
2023-04-03T00:38:38.551Z,101192.13
2023-04-03T00:39:40.388Z,101184.09
2023-04-03T00:40:45.536Z,101181.38
2023-04-03T00:41:47.629Z,101185.97
2023-04-03T00:42:57.064Z,101184.09
2023-04-03T00:43:58.785Z,101183.25
2023-04-03T00:45:28.449Z,101186.81
2023-04-03T00:46:31.167Z,101190.41
2023-04-03T00:47:33.224Z,101185.97
2023-04-03T00:48:38.775Z,101190.41
2023-04-03T00:49:41.107Z,101196.69
2023-04-03T00:50:44.834Z,101191.25
2023-04-03T00:51:47.639Z,101196.69
2023-04-03T00:52:50.116Z,101190.53
2023-04-03T00:53:54.938Z,101186.81
2023-04-03T00:54:59.588Z,101194.13
2023-04-03T00:56:02.691Z,101194.97
2023-04-03T00:57:04.601Z,101197.00
2023-04-03T00:58:10.262Z,101194.28
2023-04-03T00:59:14.836Z,101197.13
2023-04-03T01:00:20.082Z,101195.41
2023-04-03T01:01:25.016Z,101201.84
2023-04-03T01:02:27.127Z,101195.56
2023-04-03T01:03:29.887Z,101199.13
2023-04-03T01:04:33.619Z,101192.84
2023-04-03T01:05:36.471Z,101194.72
2023-04-03T01:06:38.810Z,101199.28
2023-04-03T01:07:42.044Z,101193.97
2023-04-03T01:08:45.048Z,101192.13
2023-04-03T01:09:48.455Z,101195.84
2023-04-03T01:10:51.341Z,101193.97
2023-04-03T01:11:53.064Z,101186.81
2023-04-03T01:12:55.742Z,101186.81
2023-04-03T01:13:58.821Z,101194.84
2023-04-03T01:15:02.837Z,101185.81
2023-04-03T01:16:07.273Z,101196.69
2023-04-03T01:17:27.900Z,101190.41
2023-04-03T01:18:31.083Z,101191.41
2023-04-03T01:19:36.188Z,101190.41
2023-04-03T01:21:17.799Z,101191.25
2023-04-03T01:22:20.913Z,101191.41
2023-04-03T01:23:29.238Z,101189.53
2023-04-03T01:24:36.583Z,101186.81
2023-04-03T01:25:40.630Z,101194.13
2023-04-03T01:26:43.408Z,101188.69
2023-04-03T01:27:45.076Z,101188.69
2023-04-03T01:28:47.816Z,101189.53
2023-04-03T01:29:51.038Z,101192.41
2023-04-03T01:30:59.954Z,101194.97
2023-04-03T01:32:06.498Z,101195.13
2023-04-03T01:33:09.267Z,101194.13
2023-04-03T01:34:11.024Z,101195.28
2023-04-03T01:35:17.092Z,101184.53
2023-04-03T01:36:20.697Z,101197.13
2023-04-03T01:37:23.415Z,101193.53
2023-04-03T01:38:25.455Z,101187.25
2023-04-03T01:39:28.230Z,101198.97
2023-04-03T01:40:33.025Z,101200.84
2023-04-03T01:41:35.722Z,101197.13
2023-04-03T01:42:37.473Z,101197.00
2023-04-03T01:43:40.497Z,101192.41
2023-04-03T01:44:42.221Z,101195.84
2023-04-03T01:45:45.323Z,101198.44
2023-04-03T01:46:47.521Z,101196.41
2023-04-03T01:47:52.097Z,101198.00
2023-04-03T01:48:54.113Z,101195.16
2023-04-03T01:49:56.979Z,101195.16
2023-04-03T01:50:58.688Z,101197.88
2023-04-03T01:52:01.422Z,101197.69
2023-04-03T01:53:03.253Z,101202.13
2023-04-03T01:54:06.322Z,101201.16
2023-04-03T01:55:08.818Z,101199.13
2023-04-03T01:56:11.776Z,101205.28
2023-04-03T01:57:14.679Z,101193.41
2023-04-03T01:58:17.826Z,101197.00
2023-04-03T01:59:20.250Z,101201.41
2023-04-03T02:00:23.083Z,101204.00
2023-04-03T02:01:24.834Z,101206.72
2023-04-03T02:02:27.536Z,101204.00
2023-04-03T02:03:31.880Z,101206.72
2023-04-03T02:04:34.638Z,101200.41
2023-04-03T02:05:36.502Z,101202.13
2023-04-03T02:06:39.520Z,101192.44
2023-04-03T02:07:41.366Z,101195.16
2023-04-03T02:08:44.049Z,101199.00
2023-04-03T02:09:46.052Z,101203.56
2023-04-03T02:10:49.441Z,101197.28
2023-04-03T02:11:51.157Z,101201.84
2023-04-03T02:12:54.071Z,101198.56
2023-04-03T02:13:56.006Z,101200.28
2023-04-03T02:14:58.617Z,101204.84
2023-04-03T02:16:00.345Z,101202.28
2023-04-03T02:17:05.894Z,101202.28
2023-04-03T02:18:08.114Z,101202.44
2023-04-03T02:19:12.335Z,101201.56
2023-04-03T02:20:14.057Z,101199.84
2023-04-03T02:21:16.718Z,101203.44
2023-04-03T02:22:18.440Z,101199.00
2023-04-03T02:23:21.103Z,101205.28
2023-04-03T02:24:23.137Z,101204.28
2023-04-03T02:25:25.895Z,101201.72
2023-04-03T02:26:27.847Z,101206.16
2023-04-03T02:27:30.530Z,101204.44
2023-04-03T02:28:32.302Z,101200.84
2023-04-03T02:29:35.174Z,101204.44
2023-04-03T02:30:37.215Z,101195.56
2023-04-03T02:31:40.190Z,101205.41
2023-04-03T02:32:42.108Z,101206.28
2023-04-03T02:33:44.822Z,101206.44
2023-04-03T02:34:47.912Z,101209.16
2023-04-03T02:35:55.033Z,101203.88
2023-04-03T02:36:57.094Z,101203.88
2023-04-03T02:37:59.836Z,101200.16
2023-04-03T02:39:01.533Z,101203.88
2023-04-03T02:40:05.917Z,101202.00
2023-04-03T02:41:09.254Z,101201.00
2023-04-03T02:42:11.916Z,101202.69
2023-04-03T02:43:13.607Z,101195.56
2023-04-03T02:44:16.312Z,101196.56
2023-04-03T02:45:18.031Z,101206.44
2023-04-03T02:46:20.727Z,101201.00
2023-04-03T02:47:22.568Z,101199.97
2023-04-03T02:48:25.793Z,101201.72
2023-04-03T02:49:27.497Z,101199.97
2023-04-03T02:50:31.501Z,101190.97
2023-04-03T02:51:33.355Z,101199.13
2023-04-03T02:52:36.517Z,101198.28
2023-04-03T02:53:38.168Z,101195.56
2023-04-03T02:54:40.872Z,101195.56
2023-04-03T02:55:42.865Z,101190.13
2023-04-03T02:56:45.547Z,101192.84
2023-04-03T02:57:47.222Z,101199.97
2023-04-03T02:58:50.029Z,101198.13
2023-04-03T02:59:51.837Z,101193.69
2023-04-03T03:00:54.502Z,101196.41
2023-04-03T03:01:56.811Z,101195.41
2023-04-03T03:02:59.673Z,101192.84
2023-04-03T03:04:02.026Z,101192.00
2023-04-03T03:05:05.151Z,101193.00
2023-04-03T03:06:10.761Z,101193.97
2023-04-03T03:07:13.426Z,101190.41
2023-04-03T03:08:15.503Z,101191.25
2023-04-03T03:09:18.302Z,101192.41
2023-04-03T03:10:20.269Z,101195.13
2023-04-03T03:11:23.056Z,101194.41
2023-04-03T03:12:25.794Z,101191.69
2023-04-03T03:13:27.706Z,101190.97
2023-04-03T03:14:30.353Z,101192.69
2023-04-03T03:15:32.175Z,101196.41
2023-04-03T03:16:34.950Z,101197.44
2023-04-03T03:17:37.240Z,101195.69
2023-04-03T03:18:39.950Z,101187.25
2023-04-03T03:19:41.746Z,101186.69
2023-04-03T03:20:44.461Z,101190.41
2023-04-03T03:21:47.485Z,101188.66
2023-04-03T03:22:50.271Z,101189.53
2023-04-03T03:23:52.012Z,101192.25
2023-04-03T03:24:54.695Z,101195.13
2023-04-03T03:25:57.035Z,101188.09
2023-04-03T03:26:59.730Z,101190.81
2023-04-03T03:28:01.466Z,101191.81
2023-04-03T03:29:04.252Z,101188.09
2023-04-03T03:30:07.430Z,101188.22
2023-04-03T03:31:11.099Z,101195.69
2023-04-03T03:32:12.789Z,101198.41
2023-04-03T03:33:15.537Z,101191.13
2023-04-03T03:34:17.280Z,101184.81
2023-04-03T03:35:19.939Z,101197.41
2023-04-03T03:36:22.702Z,101185.69
2023-04-03T03:37:25.776Z,101193.09
2023-04-03T03:38:28.716Z,101194.25
2023-04-03T03:39:30.420Z,101194.25
2023-04-03T03:40:33.109Z,101193.53
2023-04-03T03:41:35.909Z,101188.97
2023-04-03T03:42:37.670Z,101190.81
2023-04-03T03:43:40.405Z,101189.09
2023-04-03T03:44:42.127Z,101191.81
2023-04-03T03:45:44.839Z,101193.66
2023-04-03T03:46:46.558Z,101190.94
2023-04-03T03:47:49.282Z,101191.97
2023-04-03T03:48:51.066Z,101194.81
2023-04-03T03:49:53.758Z,101185.78
2023-04-03T03:50:55.464Z,101194.06
2023-04-03T03:51:58.108Z,101192.38
2023-04-03T03:53:01.263Z,101197.66
2023-04-03T03:54:03.933Z,101192.38
2023-04-03T03:55:06.060Z,101193.38
2023-04-03T03:56:09.122Z,101191.53
2023-04-03T03:57:10.952Z,101193.38
2023-04-03T03:58:13.719Z,101193.50
2023-04-03T03:59:15.455Z,101190.91
2023-04-03T04:00:18.593Z,101198.38
2023-04-03T04:01:20.506Z,101195.66
2023-04-03T04:02:23.282Z,101202.94
2023-04-03T04:03:25.271Z,101196.66
2023-04-03T04:04:28.052Z,101203.81
2023-04-03T04:05:29.765Z,101194.78
2023-04-03T04:06:32.439Z,101198.50
2023-04-03T04:07:34.140Z,101194.94
2023-04-03T04:08:38.258Z,101197.66
2023-04-03T04:09:40.007Z,101204.94
2023-04-03T04:10:42.792Z,101207.81
2023-04-03T04:11:44.534Z,101202.38
2023-04-03T04:12:47.214Z,101208.66
2023-04-03T04:13:48.946Z,101205.97
2023-04-03T04:14:51.663Z,101208.66
2023-04-03T04:15:53.380Z,101213.25
2023-04-03T04:16:56.131Z,101211.38
2023-04-03T04:17:58.131Z,101208.81
2023-04-03T04:19:00.876Z,101203.38
2023-04-03T04:20:03.369Z,101206.09
2023-04-03T04:21:06.092Z,101202.50
2023-04-03T04:22:07.838Z,101198.06
2023-04-03T04:23:10.564Z,101206.22
2023-04-03T04:24:13.685Z,101199.06
2023-04-03T04:25:16.689Z,101202.50
2023-04-03T04:26:19.369Z,101203.38
2023-04-03T04:27:21.030Z,101199.78
2023-04-03T04:28:23.795Z,101197.94
2023-04-03T04:29:25.648Z,101198.78
2023-04-03T04:30:28.485Z,101198.06
2023-04-03T04:31:30.327Z,101198.06
2023-04-03T04:32:33.242Z,101200.78
2023-04-03T04:33:34.967Z,101196.22
2023-04-03T04:34:37.739Z,101203.50
2023-04-03T04:35:39.743Z,101201.78
2023-04-03T04:36:42.859Z,101198.22
2023-04-03T04:37:44.756Z,101188.47
2023-04-03T04:38:47.490Z,101193.06
2023-04-03T04:39:50.873Z,101191.31
2023-04-03T04:40:53.625Z,101195.06
2023-04-03T04:41:55.601Z,101193.19
2023-04-03T04:42:58.592Z,101201.63
2023-04-03T04:44:00.353Z,101207.06
2023-04-03T04:45:03.045Z,101205.31
2023-04-03T04:46:06.484Z,101202.47
2023-04-03T04:47:09.289Z,101199.75
2023-04-03T04:48:11.111Z,101198.91
2023-04-03T04:49:13.829Z,101204.34
2023-04-03T04:50:15.920Z,101197.03
2023-04-03T04:51:18.615Z,101200.63
2023-04-03T04:52:20.343Z,101208.03
2023-04-03T04:53:23.093Z,101203.63
2023-04-03T04:54:25.010Z,101210.03
2023-04-03T04:55:29.080Z,101210.28
2023-04-03T04:56:30.868Z,101208.44
2023-04-03T04:57:33.595Z,101208.72
2023-04-03T04:58:35.455Z,101211.44
2023-04-03T04:59:38.178Z,101208.84
2023-04-03T05:00:39.976Z,101223.41
2023-04-03T05:01:42.722Z,101210.84
2023-04-03T05:02:45.555Z,101215.41
2023-04-03T05:03:48.840Z,101222.59
2023-04-03T05:04:53.098Z,101216.28
2023-04-03T05:05:54.995Z,101218.13
2023-04-03T05:06:57.616Z,101218.13
2023-04-03T05:08:00.104Z,101218.28
2023-04-03T05:09:03.252Z,101220.13
2023-04-03T05:10:06.539Z,101225.28
2023-04-03T05:11:10.813Z,101225.56
2023-04-03T05:12:12.621Z,101220.00
2023-04-03T05:13:15.749Z,101225.44
2023-04-03T05:14:17.752Z,101230.00
2023-04-03T05:15:20.471Z,101231.72
2023-04-03T05:16:22.415Z,101229.00
2023-04-03T05:17:25.186Z,101231.56
2023-04-03T05:18:26.996Z,101227.16
2023-04-03T05:19:29.788Z,101223.69
2023-04-03T05:20:31.783Z,101230.00
2023-04-03T05:21:34.453Z,101230.84
2023-04-03T05:22:36.151Z,101237.00
2023-04-03T05:23:38.845Z,101238.88
2023-04-03T05:24:40.728Z,101234.44
2023-04-03T05:25:44.898Z,101239.72
2023-04-03T05:26:47.975Z,101236.00
2023-04-03T05:27:50.994Z,101237.16
2023-04-03T05:28:52.791Z,101236.28
2023-04-03T05:29:55.797Z,101238.00
2023-04-03T05:30:59.961Z,101244.16
2023-04-03T05:32:01.724Z,101248.59
2023-04-03T05:33:04.590Z,101246.59
2023-04-03T05:34:06.860Z,101240.91
2023-04-03T05:35:10.559Z,101247.94
2023-04-03T05:36:13.740Z,101244.09
2023-04-03T05:37:15.612Z,101244.66
2023-04-03T05:38:18.362Z,101248.97
2023-04-03T05:39:20.306Z,101241.53
2023-04-03T05:40:23.140Z,101244.81
2023-04-03T05:41:25.090Z,101251.00
2023-04-03T05:42:29.187Z,101249.00
2023-04-03T05:43:31.121Z,101247.84
2023-04-03T05:44:33.869Z,101253.00
2023-04-03T05:45:35.616Z,101242.72
2023-04-03T05:46:38.434Z,101248.88
2023-04-03T05:47:40.514Z,101253.03
2023-04-03T05:48:43.580Z,101250.06
2023-04-03T05:49:46.332Z,101257.03
2023-04-03T05:50:49.113Z,101255.94
2023-04-03T05:51:52.377Z,101258.47
2023-04-03T05:52:56.932Z,101265.38
2023-04-03T05:54:13.529Z,101257.06
2023-04-03T05:55:16.459Z,101259.66
2023-04-03T05:56:18.245Z,101261.38
2023-04-03T05:57:21.245Z,101267.38
2023-04-03T05:58:24.542Z,101265.53
2023-04-03T05:59:27.243Z,101267.97
2023-04-03T06:00:29.986Z,101264.13
2023-04-03T06:01:32.702Z,101267.41
2023-04-03T06:02:34.545Z,101271.56
2023-04-03T06:03:38.749Z,101275.13
2023-04-03T06:04:42.996Z,101279.44
2023-04-03T06:05:44.835Z,101275.56
2023-04-03T06:06:49.161Z,101283.44
2023-04-03T06:07:50.982Z,101284.16
2023-04-03T06:08:54.092Z,101284.91
2023-04-03T06:09:56.744Z,101280.03
2023-04-03T06:10:59.528Z,101276.56
2023-04-03T06:12:02.857Z,101277.44
2023-04-03T06:13:04.562Z,101282.56
2023-04-03T06:14:09.071Z,101279.59
2023-04-03T06:15:11.262Z,101281.31
2023-04-03T06:16:16.404Z,101281.16
2023-04-03T06:17:19.203Z,101286.16
2023-04-03T06:18:21.973Z,101287.75
2023-04-03T06:19:24.118Z,101291.19
2023-04-03T06:20:26.935Z,101279.16
2023-04-03T06:21:29.702Z,101289.06
2023-04-03T06:22:31.749Z,101287.19
2023-04-03T06:23:34.377Z,101292.34
2023-04-03T06:24:36.446Z,101292.47
2023-04-03T06:25:39.322Z,101290.75
2023-04-03T06:26:41.105Z,101294.50
2023-04-03T06:27:43.829Z,101297.22
2023-04-03T06:28:45.701Z,101293.47
2023-04-03T06:29:50.192Z,101291.34
2023-04-03T06:30:52.908Z,101295.63
2023-04-03T06:31:54.675Z,101299.75
2023-04-03T06:32:57.724Z,101303.53
2023-04-03T06:34:00.568Z,101293.31
2023-04-03T06:35:02.301Z,101294.06
2023-04-03T06:36:06.934Z,101294.31
2023-04-03T06:37:11.933Z,101298.63
2023-04-03T06:38:14.623Z,101301.91
2023-04-03T06:39:18.070Z,101303.34
2023-04-03T06:40:23.971Z,101304.50
2023-04-03T06:41:26.669Z,101305.63
2023-04-03T06:42:29.354Z,101313.06
2023-04-03T06:43:33.900Z,101314.50
2023-04-03T06:44:37.229Z,101297.41
2023-04-03T06:45:40.587Z,101305.84
2023-04-03T06:46:43.749Z,101303.69
2023-04-03T06:47:46.751Z,101306.84
2023-04-03T06:48:49.010Z,101307.59
2023-04-03T06:49:52.280Z,101309.00
2023-04-03T06:50:54.424Z,101313.28
2023-04-03T06:51:57.644Z,101311.16
2023-04-03T06:52:59.534Z,101307.25
2023-04-03T06:54:02.726Z,101310.25
2023-04-03T06:55:06.206Z,101315.38
2023-04-03T06:56:10.748Z,101307.75
2023-04-03T06:57:13.621Z,101313.06
2023-04-03T06:58:18.739Z,101312.75
2023-04-03T06:59:22.199Z,101319.78
2023-04-03T07:00:25.887Z,101318.34
2023-04-03T07:01:31.210Z,101313.59
2023-04-03T07:02:33.284Z,101315.16
2023-04-03T07:03:36.505Z,101316.72
2023-04-03T07:04:39.435Z,101327.16
2023-04-03T07:05:45.470Z,101319.56
2023-04-03T07:06:47.758Z,101314.94
2023-04-03T07:07:50.787Z,101318.66
2023-04-03T07:08:52.643Z,101324.81
2023-04-03T07:09:55.726Z,101327.25
2023-04-03T07:10:57.531Z,101320.22
2023-04-03T07:12:00.271Z,101324.13
2023-04-03T07:13:02.716Z,101323.38
2023-04-03T07:14:06.494Z,101327.84
2023-04-03T07:15:10.381Z,101334.16
2023-04-03T07:16:12.560Z,101329.72
2023-04-03T07:17:16.739Z,101329.25
2023-04-03T07:18:19.431Z,101325.66
2023-04-03T07:19:22.368Z,101330.13
2023-04-03T07:20:24.198Z,101335.25
2023-04-03T07:21:26.958Z,101335.97
2023-04-03T07:22:29.624Z,101335.84
2023-04-03T07:23:31.548Z,101340.44
2023-04-03T07:24:34.302Z,101340.44
2023-04-03T07:25:37.381Z,101338.38
2023-04-03T07:26:40.219Z,101345.56
2023-04-03T07:27:43.554Z,101343.25
2023-04-03T07:28:45.501Z,101348.09
2023-04-03T07:29:49.037Z,101346.63
2023-04-03T07:30:52.117Z,101344.44
2023-04-03T07:31:56.342Z,101344.84
2023-04-03T07:33:00.567Z,101349.13
2023-04-03T07:34:02.318Z,101342.81
2023-04-03T07:35:05.766Z,101348.13
2023-04-03T07:36:08.247Z,101358.31
2023-04-03T07:37:11.031Z,101358.31
2023-04-03T07:38:13.246Z,101354.59
2023-04-03T07:39:15.948Z,101350.84
2023-04-03T07:40:19.029Z,101346.09
2023-04-03T07:41:23.918Z,101360.44
2023-04-03T07:42:28.597Z,101356.56
2023-04-03T07:43:30.484Z,101358.09
2023-04-03T07:44:33.515Z,101367.56
2023-04-03T07:45:37.033Z,101359.75
2023-04-03T07:46:39.940Z,101364.63
2023-04-03T07:47:41.694Z,101369.91
2023-04-03T07:48:46.174Z,101367.03
2023-04-03T07:49:49.304Z,101357.66
2023-04-03T07:50:51.525Z,101361.81
2023-04-03T07:51:54.308Z,101363.22
2023-04-03T07:52:57.374Z,101363.22
2023-04-03T07:54:00.449Z,101360.28
2023-04-03T07:55:02.152Z,101363.22
2023-04-03T07:56:04.887Z,101367.47
2023-04-03T07:57:06.912Z,101364.59
2023-04-03T07:58:09.621Z,101368.88
2023-04-03T07:59:12.481Z,101351.34
2023-04-03T08:00:16.166Z,101371.47
2023-04-03T08:01:18.855Z,101360.41
2023-04-03T08:02:21.534Z,101366.53
2023-04-03T08:03:23.600Z,101366.44
2023-04-03T08:04:28.231Z,101371.91
2023-04-03T08:05:30.071Z,101361.69
2023-04-03T08:06:45.858Z,101369.56
2023-04-03T08:07:50.248Z,101361.34
2023-04-03T08:08:53.058Z,101363.75
2023-04-03T08:09:56.163Z,101375.41
2023-04-03T08:11:00.985Z,101371.66
2023-04-03T08:12:03.704Z,101375.06
2023-04-03T08:13:06.825Z,101371.34
2023-04-03T08:14:11.928Z,101370.00
2023-04-03T08:15:13.645Z,101366.97
2023-04-03T08:16:20.670Z,101362.91
2023-04-03T08:17:23.592Z,101361.19
2023-04-03T08:18:25.702Z,101363.59
2023-04-03T08:19:29.779Z,101361.19
2023-04-03T08:20:32.554Z,101370.72
2023-04-03T08:21:35.475Z,101368.66
2023-04-03T08:22:38.164Z,101371.97
2023-04-03T08:23:42.109Z,101369.63
2023-04-03T08:24:56.119Z,101359.88
2023-04-03T08:26:01.016Z,101363.00
2023-04-03T08:27:03.682Z,101368.84
2023-04-03T08:28:05.697Z,101362.03
2023-04-03T08:29:08.873Z,101365.34
2023-04-03T08:30:11.564Z,101360.72
2023-04-03T08:31:17.070Z,101357.66
2023-04-03T08:32:19.997Z,101364.53
2023-04-03T08:33:22.662Z,101357.03
2023-04-03T08:34:25.365Z,101359.09
2023-04-03T08:35:29.601Z,101361.53
2023-04-03T08:36:32.416Z,101355.72
2023-04-03T08:37:37.082Z,101363.78
2023-04-03T08:38:38.747Z,101359.16
2023-04-03T08:39:41.482Z,101359.53
2023-04-03T08:40:44.174Z,101362.78
2023-04-03T08:41:47.449Z,101359.91
2023-04-03T08:42:57.090Z,101357.53
2023-04-03T08:44:15.725Z,101365.25
2023-04-03T08:45:21.377Z,101359.31
2023-04-03T08:46:25.445Z,101362.69
2023-04-03T08:47:32.504Z,101360.09
2023-04-03T08:48:37.829Z,101353.63
2023-04-03T08:49:48.660Z,101361.94
2023-04-03T08:50:55.787Z,101359.31
2023-04-03T08:51:59.636Z,101355.41
2023-04-03T08:53:06.058Z,101360.22
2023-04-03T08:54:18.041Z,101356.31
2023-04-03T08:55:25.521Z,101348.97
2023-04-03T08:56:28.578Z,101347.59
2023-04-03T08:57:33.704Z,101351.63
2023-04-03T08:58:43.977Z,101351.59
2023-04-03T08:59:47.017Z,101352.41
2023-04-03T09:00:51.367Z,101356.81
2023-04-03T09:01:53.483Z,101357.28
2023-04-03T09:02:57.510Z,101356.75
2023-04-03T09:04:03.142Z,101357.44
2023-04-03T09:05:13.602Z,101353.16
2023-04-03T09:06:19.774Z,101348.19
2023-04-03T09:07:27.210Z,101352.41
2023-04-03T09:08:31.677Z,101352.41
2023-04-03T09:09:37.593Z,101353.41
2023-04-03T09:10:41.154Z,101358.09
2023-04-03T09:11:53.359Z,101359.00
2023-04-03T09:13:02.293Z,101361.09
2023-04-03T09:14:10.236Z,101358.78
2023-04-03T09:15:27.744Z,101359.06
2023-04-03T09:16:50.204Z,101359.97
2023-04-03T09:18:02.122Z,101350.13
2023-04-03T09:19:10.721Z,101354.81
2023-04-03T09:20:21.433Z,101357.28
2023-04-03T09:21:30.235Z,101362.41
2023-04-03T09:22:41.972Z,101362.06
2023-04-03T09:23:50.440Z,101358.16
2023-04-03T09:24:59.139Z,101355.06
2023-04-03T09:26:06.017Z,101360.56
2023-04-03T09:27:12.085Z,101362.28
2023-04-03T09:28:14.956Z,101353.59
2023-04-03T09:29:21.642Z,101349.66
2023-04-03T09:30:26.556Z,101356.03
2023-04-03T09:31:33.356Z,101341.81
2023-04-03T09:32:37.527Z,101352.56
2023-04-03T09:33:41.973Z,101343.84
2023-04-03T09:34:45.654Z,101344.38
2023-04-03T09:35:49.724Z,101345.53
2023-04-03T09:36:54.031Z,101349.66
2023-04-03T09:38:00.814Z,101354.94
2023-04-03T09:39:06.164Z,101345.00
2023-04-03T09:40:31.004Z,101342.56
2023-04-03T09:41:34.269Z,101339.66
2023-04-03T09:42:55.370Z,101343.28
2023-04-03T09:44:02.547Z,101339.69
2023-04-03T09:45:07.710Z,101347.88
2023-04-03T09:46:27.444Z,101341.16
2023-04-03T09:47:31.285Z,101339.59
2023-04-03T09:48:33.086Z,101341.00
2023-04-03T09:49:35.766Z,101337.41
2023-04-03T09:50:38.338Z,101331.44
2023-04-03T09:51:42.412Z,101339.16
2023-04-03T09:52:47.908Z,101336.78
2023-04-03T09:53:49.657Z,101339.34
2023-04-03T09:54:52.567Z,101332.69
2023-04-03T09:55:55.330Z,101337.31
2023-04-03T09:56:57.337Z,101337.31
2023-04-03T09:58:01.513Z,101332.69
2023-04-03T09:59:13.308Z,101342.44
2023-04-03T10:00:24.023Z,101339.56
2023-04-03T10:01:30.386Z,101344.19
2023-04-03T10:02:37.329Z,101345.41
2023-04-03T10:03:47.363Z,101348.88
2023-04-03T10:05:06.266Z,101344.78
2023-04-03T10:06:24.885Z,101338.44
2023-04-03T10:07:36.030Z,101342.09
2023-04-03T10:08:41.328Z,101339.56
2023-04-03T10:09:57.164Z,101339.22
2023-04-03T10:11:14.543Z,101338.38
2023-04-03T10:12:22.189Z,101340.78
2023-04-03T10:13:24.186Z,101337.03
2023-04-03T10:14:27.195Z,101339.03
2023-04-03T10:15:32.137Z,101341.78
2023-04-03T10:16:38.804Z,101333.75
2023-04-03T10:17:51.678Z,101334.25
2023-04-03T10:19:02.330Z,101333.56
2023-04-03T10:20:10.511Z,101338.19
2023-04-03T10:21:27.134Z,101340.94
2023-04-03T10:22:38.571Z,101337.00
2023-04-03T10:23:45.767Z,101337.16
2023-04-03T10:24:56.460Z,101335.94
2023-04-03T10:26:07.124Z,101326.84
2023-04-03T10:27:13.127Z,101335.91
2023-04-03T10:28:21.364Z,101334.16
2023-04-03T10:29:32.198Z,101341.00
2023-04-03T10:30:41.744Z,101337.91
2023-04-03T10:31:50.677Z,101331.72
2023-04-03T10:32:59.708Z,101344.19
2023-04-03T10:34:07.802Z,101327.34
2023-04-03T10:35:15.806Z,101326.16
2023-04-03T10:36:27.647Z,101329.41
2023-04-03T10:37:37.674Z,101328.69
2023-04-03T10:38:46.045Z,101336.38
2023-04-03T10:39:54.685Z,101335.53
2023-04-03T10:40:59.067Z,101328.31
2023-04-03T10:42:16.623Z,101321.09
2023-04-03T10:43:24.581Z,101325.66
2023-04-03T10:44:33.843Z,101323.41
2023-04-03T10:45:50.505Z,101332.50
2023-04-03T10:46:55.342Z,101328.91
2023-04-03T10:48:04.171Z,101324.63
2023-04-03T10:49:24.740Z,101326.19
2023-04-03T10:50:34.072Z,101333.59
2023-04-03T10:51:42.374Z,101327.72
2023-04-03T10:52:48.379Z,101322.28
2023-04-03T10:53:57.460Z,101326.44
2023-04-03T10:55:07.593Z,101318.63
2023-04-03T10:56:15.248Z,101328.19
2023-04-03T10:57:17.515Z,101325.38
2023-04-03T10:58:23.339Z,101323.97
2023-04-03T10:59:29.925Z,101316.38
2023-04-03T11:00:38.369Z,101329.56
2023-04-03T11:01:43.407Z,101315.09
2023-04-03T11:02:51.288Z,101321.53
2023-04-03T11:03:55.808Z,101311.06
2023-04-03T11:05:02.005Z,101314.59
2023-04-03T11:06:07.104Z,101314.22
2023-04-03T11:07:12.644Z,101313.00
2023-04-03T11:08:23.813Z,101313.66
2023-04-03T11:09:29.624Z,101318.13
2023-04-03T11:10:37.534Z,101312.78
2023-04-03T11:11:42.157Z,101313.47
2023-04-03T11:12:47.893Z,101307.97
2023-04-03T11:13:55.531Z,101312.78
2023-04-03T11:14:59.104Z,101314.47
2023-04-03T11:16:01.531Z,101306.59
2023-04-03T11:17:11.787Z,101317.41
2023-04-03T11:18:17.936Z,101304.72
2023-04-03T11:19:24.456Z,101298.94
2023-04-03T11:20:34.028Z,101302.56
2023-04-03T11:21:40.190Z,101298.38
2023-04-03T11:22:46.232Z,101288.66
2023-04-03T11:23:50.202Z,101284.50
2023-04-03T11:25:00.052Z,101265.13
2023-04-03T11:26:11.595Z,101288.91
2023-04-03T11:27:17.763Z,101297.91
2023-04-03T11:28:20.615Z,101297.09
2023-04-03T11:29:35.007Z,101290.09
2023-04-03T11:30:44.185Z,101294.91
2023-04-03T11:32:04.342Z,101293.72
2023-04-03T11:33:27.539Z,101288.13
2023-04-03T11:34:37.998Z,101285.13
2023-04-03T11:35:45.329Z,101289.06
2023-04-03T11:36:50.575Z,101283.56
2023-04-03T11:37:53.712Z,101284.44
2023-04-03T11:38:58.299Z,101282.63
2023-04-03T11:40:04.670Z,101291.13
2023-04-03T11:41:08.819Z,101296.13
2023-04-03T11:42:28.853Z,101294.22
2023-04-03T11:43:33.062Z,101293.50
2023-04-03T11:44:38.598Z,101287.41
2023-04-03T11:45:52.908Z,101288.53
2023-04-03T11:46:57.951Z,101280.38
2023-04-03T11:48:09.877Z,101281.28
2023-04-03T11:49:59.126Z,101280.63
2023-04-03T11:51:03.279Z,101279.19
2023-04-03T11:52:06.260Z,101283.00
2023-04-03T11:53:28.465Z,101271.50
2023-04-03T11:54:46.148Z,101274.84
2023-04-03T11:56:01.289Z,101270.38
2023-04-03T11:57:25.312Z,101283.31
2023-04-03T11:58:29.851Z,101272.50
2023-04-03T11:59:39.221Z,101285.59
2023-04-03T12:00:53.088Z,101276.28
2023-04-03T12:01:57.531Z,101277.16
2023-04-03T12:02:59.506Z,101277.91
2023-04-03T12:04:10.806Z,101276.41
2023-04-03T12:05:30.478Z,101270.88
2023-04-03T12:07:05.305Z,101280.63
2023-04-03T12:08:46.126Z,101285.69
2023-04-03T12:10:18.428Z,101278.22
2023-04-03T12:11:36.467Z,101262.06
2023-04-03T12:12:41.407Z,101263.59
2023-04-03T12:14:05.844Z,101255.44
2023-04-03T12:15:24.719Z,101257.44
2023-04-03T12:16:29.099Z,101259.00
2023-04-03T12:17:31.879Z,101258.84
2023-04-03T12:19:03.733Z,101255.50
2023-04-03T12:20:53.452Z,101258.75